createdAt,value
2019-01-10T00:00:03.209Z,6.1
2019-01-10T00:01:03.288Z,6.1
2019-01-10T00:02:02.948Z,6.1
2019-01-10T00:03:03.774Z,7.2
2019-01-10T00:04:02.568Z,7.2
2019-01-10T00:05:01.994Z,6.1
2019-01-10T00:06:03.106Z,6.1
2019-01-10T00:07:03.268Z,6.1
2019-01-10T00:08:02.808Z,7.2
2019-01-10T00:09:03.304Z,6.1
2019-01-10T00:10:03.448Z,7.2
2019-01-10T00:11:03.160Z,6.1
2019-01-10T00:12:03.324Z,7.2
2019-01-10T00:13:02.905Z,7.2
2019-01-10T00:14:03.317Z,5
2019-01-10T00:15:03.033Z,7.2
2019-01-10T00:16:02.919Z,6.1
2019-01-10T00:17:03.488Z,5
2019-01-10T00:18:03.489Z,5
2019-01-10T00:19:02.846Z,6.1
2019-01-10T00:20:03.490Z,7.2
2019-01-10T00:21:03.397Z,7.2
2019-01-10T00:22:03.081Z,7.2
2019-01-10T00:23:03.658Z,6.1
2019-01-10T00:24:03.682Z,6.1
2019-01-10T00:25:03.273Z,6.1
2019-01-10T00:26:03.264Z,7.2
2019-01-10T00:27:03.529Z,6.1
2019-01-10T00:28:02.850Z,5
2019-01-10T00:29:03.291Z,6.1
2019-01-10T00:30:03.347Z,5
2019-01-10T00:31:02.635Z,6.1
2019-01-10T00:32:03.522Z,7.2
2019-01-10T00:33:02.937Z,7.2
2019-01-10T00:34:02.987Z,8.6
2019-01-10T00:35:02.932Z,7.2
2019-01-10T00:36:03.294Z,7.2
2019-01-10T00:37:02.907Z,8.6
2019-01-10T00:38:03.550Z,7.2
2019-01-10T00:39:02.951Z,6.1
2019-01-10T00:40:03.429Z,6.1
2019-01-10T00:41:02.812Z,7.2
2019-01-10T00:42:03.260Z,7.2
2019-01-10T00:43:02.985Z,5
2019-01-10T00:44:03.109Z,5
2019-01-10T00:45:03.154Z,7.2
2019-01-10T00:46:03.484Z,7.2
2019-01-10T00:47:03.346Z,7.2
2019-01-10T00:48:03.200Z,7.2
2019-01-10T00:49:03.598Z,7.2
2019-01-10T00:50:03.520Z,7.2
2019-01-10T00:51:03.612Z,6.1
2019-01-10T00:52:02.614Z,6.1
2019-01-10T00:53:01.870Z,6.1
2019-01-10T00:54:02.460Z,5
2019-01-10T00:55:03.204Z,5
2019-01-10T00:56:03.519Z,5
2019-01-10T00:57:03.351Z,6.1
2019-01-10T00:58:01.780Z,3.6
2019-01-10T00:59:03.641Z,6.1
2019-01-10T01:00:03.648Z,6.1
2019-01-10T01:01:03.171Z,7.2
2019-01-10T01:02:03.417Z,7.2
2019-01-10T01:03:03.097Z,7.2
2019-01-10T01:04:03.639Z,7.2
2019-01-10T01:05:03.830Z,7.2
2019-01-10T01:06:03.312Z,7.2
2019-01-10T01:07:03.174Z,7.2
2019-01-10T01:08:02.860Z,7.2
2019-01-10T01:09:03.073Z,6.1
2019-01-10T01:10:03.492Z,6.1
2019-01-10T01:11:03.729Z,6.1
2019-01-10T01:12:03.239Z,6.1
2019-01-10T01:13:03.642Z,6.1
2019-01-10T01:14:03.512Z,6.1
2019-01-10T01:15:03.431Z,7.2
2019-01-10T01:16:03.068Z,6.1
2019-01-10T01:17:01.946Z,5
2019-01-10T01:18:01.989Z,6.1
2019-01-10T01:19:03.415Z,6.1
2019-01-10T01:20:02.817Z,6.1
2019-01-10T01:21:02.793Z,5
2019-01-10T01:22:03.333Z,8.6
2019-01-10T01:23:03.188Z,8.6
2019-01-10T01:24:02.774Z,8.6
2019-01-10T01:25:03.651Z,7.2
2019-01-10T01:26:03.161Z,6.1
2019-01-10T01:27:03.072Z,6.1
2019-01-10T01:28:03.488Z,7.2
2019-01-10T01:29:02.858Z,7.2
2019-01-10T01:30:03.766Z,8.6
2019-01-10T01:31:03.685Z,8.6
2019-01-10T01:32:02.897Z,7.2
2019-01-10T01:33:03.209Z,7.2
2019-01-10T01:34:03.635Z,7.2
2019-01-10T01:35:03.441Z,7.2
2019-01-10T01:36:03.283Z,7.2
2019-01-10T01:37:02.789Z,6.1
2019-01-10T01:38:03.650Z,7.2
2019-01-10T01:39:03.353Z,7.2
2019-01-10T01:40:03.720Z,9.7
2019-01-10T01:41:02.469Z,8.6
2019-01-10T01:42:03.473Z,7.2
2019-01-10T01:43:08.058Z,7.2
2019-01-10T01:44:03.638Z,6.1
2019-01-10T01:45:03.116Z,6.1
2019-01-10T01:46:03.261Z,6.1
2019-01-10T01:47:03.035Z,5
2019-01-10T01:48:03.654Z,7.2
2019-01-10T01:49:02.848Z,11.2
2019-01-10T01:50:03.069Z,6.1
2019-01-10T01:51:03.003Z,6.1
2019-01-10T01:52:03.286Z,6.1
2019-01-10T01:53:03.739Z,6.1
2019-01-10T01:54:02.906Z,6.1
2019-01-10T01:55:03.350Z,6.1
2019-01-10T01:56:03.482Z,7.2
2019-01-10T01:57:03.960Z,6.1
2019-01-10T01:58:03.264Z,6.1
2019-01-10T01:59:03.182Z,6.1
2019-01-10T02:00:03.181Z,6.1
2019-01-10T02:01:03.351Z,6.1
2019-01-10T02:02:03.371Z,5
2019-01-10T02:03:03.061Z,5
2019-01-10T02:04:02.844Z,6.1
2019-01-10T02:05:03.810Z,5
2019-01-10T02:06:03.164Z,7.2
2019-01-10T02:07:03.819Z,6.1
2019-01-10T02:08:03.153Z,6.1
2019-01-10T02:09:02.200Z,8.6
2019-01-10T02:10:03.411Z,6.1
2019-01-10T02:11:02.812Z,6.1
2019-01-10T02:12:03.643Z,6.1
2019-01-10T02:13:02.742Z,5
2019-01-10T02:14:03.510Z,5
2019-01-10T02:15:03.623Z,5
2019-01-10T02:16:03.541Z,5
2019-01-10T02:17:03.634Z,5
2019-01-10T02:18:03.078Z,8.6
2019-01-10T02:19:03.184Z,8.6
2019-01-10T02:20:03.401Z,8.6
2019-01-10T02:21:02.838Z,8.6
2019-01-10T02:22:03.515Z,5
2019-01-10T02:23:03.464Z,5
2019-01-10T02:24:03.019Z,7.2
2019-01-10T02:25:03.062Z,7.2
2019-01-10T02:26:02.362Z,7.2
2019-01-10T02:27:03.554Z,5
2019-01-10T02:28:02.947Z,5
2019-01-10T02:29:02.835Z,5
2019-01-10T02:30:03.599Z,6.1
2019-01-10T02:31:02.959Z,5
2019-01-10T02:32:03.742Z,6.1
2019-01-10T02:33:02.781Z,6.1
2019-01-10T02:34:03.175Z,6.1
2019-01-10T02:35:03.124Z,6.1
2019-01-10T02:36:03.043Z,5
2019-01-10T02:37:03.499Z,5
2019-01-10T02:38:03.073Z,5
2019-01-10T02:39:03.821Z,6.1
2019-01-10T02:40:02.921Z,6.1
2019-01-10T02:41:03.143Z,8.6
2019-01-10T02:42:02.997Z,3.6
2019-01-10T02:43:04.838Z,3.6
2019-01-10T02:44:03.397Z,5
2019-01-10T02:45:03.361Z,5
2019-01-10T02:46:02.876Z,6.1
2019-01-10T02:47:02.898Z,7.2
2019-01-10T02:48:02.643Z,7.2
2019-01-10T02:49:02.734Z,5
2019-01-10T02:50:02.796Z,7.2
2019-01-10T02:51:02.538Z,5
2019-01-10T02:52:03.367Z,6.1
2019-01-10T02:53:03.076Z,5
2019-01-10T02:54:03.047Z,7.2
2019-01-10T02:55:03.751Z,7.2
2019-01-10T02:56:03.955Z,8.6
2019-01-10T02:57:03.784Z,8.6
2019-01-10T02:58:03.357Z,8.6
2019-01-10T02:59:03.251Z,6.1
2019-01-10T03:00:03.422Z,5
2019-01-10T03:01:02.867Z,7.2
2019-01-10T03:02:03.666Z,7.2
2019-01-10T03:03:03.785Z,7.2
2019-01-10T03:04:03.480Z,7.2
2019-01-10T03:05:02.778Z,7.2
2019-01-10T03:06:02.875Z,7.2
2019-01-10T03:07:03.558Z,7.2
2019-01-10T03:08:03.719Z,7.2
2019-01-10T03:09:03.312Z,7.2
2019-01-10T03:10:02.864Z,3.6
2019-01-10T03:11:03.194Z,6.1
2019-01-10T03:12:02.317Z,5
2019-01-10T03:13:02.584Z,5
2019-01-10T03:14:03.659Z,5
2019-01-10T03:15:02.140Z,5
2019-01-10T03:16:02.807Z,5
2019-01-10T03:17:03.895Z,6.1
2019-01-10T03:18:03.166Z,5
2019-01-10T03:19:03.137Z,5
2019-01-10T03:20:02.946Z,6.1
2019-01-10T03:21:04.003Z,2.5
2019-01-10T03:22:03.118Z,3.6
2019-01-10T03:23:03.603Z,3.6
2019-01-10T03:24:03.669Z,5
2019-01-10T03:25:03.090Z,6.1
2019-01-10T03:26:03.319Z,7.2
2019-01-10T03:27:03.199Z,5
2019-01-10T03:28:02.640Z,5
2019-01-10T03:29:03.514Z,6.1
2019-01-10T03:30:03.816Z,6.1
2019-01-10T03:31:03.432Z,6.1
2019-01-10T03:32:03.772Z,6.1
2019-01-10T03:33:03.031Z,6.1
2019-01-10T03:34:03.123Z,6.1
2019-01-10T03:35:03.634Z,5
2019-01-10T03:36:03.882Z,6.1
2019-01-10T03:37:03.206Z,6.1
2019-01-10T03:38:01.838Z,5
2019-01-10T03:39:03.117Z,5
2019-01-10T03:40:03.052Z,5
2019-01-10T03:41:03.777Z,3.6
2019-01-10T03:42:03.581Z,3.6
2019-01-10T03:43:03.066Z,5
2019-01-10T03:44:03.547Z,5
2019-01-10T03:45:02.918Z,6.1
2019-01-10T03:46:03.811Z,7.2
2019-01-10T03:47:03.516Z,3.6
2019-01-10T03:48:03.200Z,3.6
2019-01-10T03:49:02.926Z,5
2019-01-10T03:50:03.406Z,5
2019-01-10T03:51:02.934Z,5
2019-01-10T03:52:03.023Z,5
2019-01-10T03:53:03.719Z,5
2019-01-10T03:54:03.712Z,5
2019-01-10T03:55:03.117Z,5
2019-01-10T03:56:03.175Z,5
2019-01-10T03:57:02.982Z,5
2019-01-10T03:58:02.873Z,6.1
2019-01-10T03:59:03.104Z,5
2019-01-10T04:00:02.007Z,6.1
2019-01-10T04:01:02.977Z,6.1
2019-01-10T04:02:03.398Z,6.1
2019-01-10T04:03:03.823Z,5
2019-01-10T04:04:03.711Z,5
2019-01-10T04:05:03.443Z,5
2019-01-10T04:06:03.451Z,5
2019-01-10T04:07:03.643Z,5
2019-01-10T04:08:03.299Z,5
2019-01-10T04:09:03.342Z,3.6
2019-01-10T04:10:02.856Z,3.6
2019-01-10T04:11:03.606Z,5
2019-01-10T04:12:03.850Z,5
2019-01-10T04:13:02.783Z,5
2019-01-10T04:14:02.959Z,5
2019-01-10T04:15:03.779Z,3.6
2019-01-10T04:16:03.606Z,3.6
2019-01-10T04:17:03.250Z,6.1
2019-01-10T04:18:03.511Z,6.1
2019-01-10T04:19:03.233Z,3.6
2019-01-10T04:20:02.912Z,3.6
2019-01-10T04:21:02.744Z,3.6
2019-01-10T04:22:02.103Z,3.6
2019-01-10T04:23:02.729Z,5
2019-01-10T04:24:02.278Z,5
2019-01-10T04:25:03.742Z,6.1
2019-01-10T04:26:02.859Z,3.6
2019-01-10T04:27:02.954Z,3.6
2019-01-10T04:28:03.369Z,3.6
2019-01-10T04:29:03.109Z,3.6
2019-01-10T04:30:03.580Z,5
2019-01-10T04:31:03.296Z,3.6
2019-01-10T04:32:03.415Z,3.6
2019-01-10T04:33:03.456Z,6.1
2019-01-10T04:34:02.946Z,6.1
2019-01-10T04:35:03.756Z,5
2019-01-10T04:36:03.460Z,5
2019-01-10T04:37:03.471Z,3.6
2019-01-10T04:38:03.342Z,2.5
2019-01-10T04:39:03.658Z,2.5
2019-01-10T04:40:03.064Z,2.5
2019-01-10T04:41:03.377Z,2.5
2019-01-10T04:42:03.545Z,3.6
2019-01-10T04:43:03.465Z,3.6
2019-01-10T04:44:07.804Z,5
2019-01-10T04:45:02.258Z,5
2019-01-10T04:46:02.986Z,3.6
2019-01-10T04:47:03.286Z,5
2019-01-10T04:48:03.220Z,3.6
2019-01-10T04:49:03.148Z,3.6
2019-01-10T04:50:03.247Z,3.6
2019-01-10T04:51:03.242Z,6.1
2019-01-10T04:52:03.123Z,3.6
2019-01-10T04:53:02.840Z,3.6
2019-01-10T04:54:03.699Z,3.6
2019-01-10T04:55:03.051Z,3.6
2019-01-10T04:56:03.194Z,3.6
2019-01-10T04:57:03.039Z,3.6
2019-01-10T04:58:03.136Z,2.5
2019-01-10T04:59:03.169Z,3.6
2019-01-10T05:00:03.517Z,5
2019-01-10T05:01:03.236Z,5
2019-01-10T05:02:03.029Z,5
2019-01-10T05:03:02.802Z,5
2019-01-10T05:04:02.988Z,5
2019-01-10T05:05:03.092Z,5
2019-01-10T05:06:03.844Z,5
2019-01-10T05:07:01.639Z,5
2019-01-10T05:08:03.769Z,5
2019-01-10T05:09:01.872Z,3.6
2019-01-10T05:10:03.620Z,2.5
2019-01-10T05:11:03.100Z,5
2019-01-10T05:12:03.154Z,3.6
2019-01-10T05:13:03.527Z,2.5
2019-01-10T05:14:02.674Z,2.5
2019-01-10T05:15:03.661Z,2.5
2019-01-10T05:16:03.171Z,3.6
2019-01-10T05:17:03.632Z,2.5
2019-01-10T05:18:03.606Z,3.6
2019-01-10T05:19:03.177Z,3.6
2019-01-10T05:20:03.411Z,3.6
2019-01-10T05:21:03.124Z,3.6
2019-01-10T05:22:03.339Z,3.6
2019-01-10T05:23:02.819Z,5
2019-01-10T05:24:03.533Z,5
2019-01-10T05:25:03.178Z,5
2019-01-10T05:26:03.572Z,3.6
2019-01-10T05:27:02.436Z,3.6
2019-01-10T05:28:03.606Z,2.5
2019-01-10T05:29:03.593Z,3.6
2019-01-10T05:30:03.222Z,5
2019-01-10T05:31:03.300Z,3.6
2019-01-10T05:32:03.798Z,3.6
2019-01-10T05:33:03.217Z,5
2019-01-10T05:34:03.284Z,3.6
2019-01-10T05:35:03.337Z,5
2019-01-10T05:36:03.145Z,3.6
2019-01-10T05:37:05.962Z,5
2019-01-10T05:38:02.726Z,5
2019-01-10T05:39:03.809Z,3.6
2019-01-10T05:40:03.842Z,3.6
2019-01-10T05:41:03.547Z,3.6
2019-01-10T05:42:03.619Z,3.6
2019-01-10T05:43:02.977Z,3.6
2019-01-10T05:44:02.809Z,5
2019-01-10T05:45:03.646Z,5
2019-01-10T05:46:03.546Z,5
2019-01-10T05:47:03.164Z,5
2019-01-10T05:48:03.087Z,5
2019-01-10T05:49:02.484Z,5
2019-01-10T05:50:03.591Z,5
2019-01-10T05:51:02.461Z,5
2019-01-10T05:52:03.142Z,3.6
2019-01-10T05:53:03.014Z,3.6
2019-01-10T05:54:02.249Z,2.5
2019-01-10T05:55:03.680Z,3.6
2019-01-10T05:56:03.459Z,3.6
2019-01-10T05:57:03.407Z,3.6
2019-01-10T05:58:03.432Z,3.6
2019-01-10T05:59:03.663Z,5
2019-01-10T06:00:03.029Z,5
2019-01-10T06:01:03.127Z,3.6
2019-01-10T06:02:03.710Z,3.6
2019-01-10T06:03:02.930Z,3.6
2019-01-10T06:04:03.114Z,5
2019-01-10T06:05:03.261Z,3.6
2019-01-10T06:06:02.585Z,5
2019-01-10T06:07:02.868Z,5
2019-01-10T06:08:03.590Z,2.5
2019-01-10T06:09:02.829Z,2.5
2019-01-10T06:10:03.675Z,5
2019-01-10T06:11:03.228Z,6.1
2019-01-10T06:12:03.274Z,6.1
2019-01-10T06:13:03.508Z,6.1
2019-01-10T06:14:03.558Z,3.6
2019-01-10T06:15:03.400Z,3.6
2019-01-10T06:16:03.344Z,3.6
2019-01-10T06:17:03.428Z,5
2019-01-10T06:18:03.496Z,5
2019-01-10T06:19:03.010Z,6.1
2019-01-10T06:20:03.773Z,6.1
2019-01-10T06:21:03.620Z,6.1
2019-01-10T06:22:03.442Z,5
2019-01-10T06:23:03.660Z,5
2019-01-10T06:24:03.676Z,6.1
2019-01-10T06:25:03.119Z,6.1
2019-01-10T06:26:03.149Z,5
2019-01-10T06:27:02.787Z,5
2019-01-10T06:28:02.936Z,3.6
2019-01-10T06:29:03.364Z,7.2
2019-01-10T06:30:03.178Z,3.6
2019-01-10T06:31:02.980Z,5
2019-01-10T06:32:02.970Z,5
2019-01-10T06:33:01.945Z,5
2019-01-10T06:34:03.520Z,5
2019-01-10T06:35:03.293Z,3.6
2019-01-10T06:36:02.825Z,6.1
2019-01-10T06:37:03.208Z,3.6
2019-01-10T06:38:03.498Z,6.1
2019-01-10T06:39:03.460Z,6.1
2019-01-10T06:40:03.691Z,3.6
2019-01-10T06:41:02.901Z,3.6
2019-01-10T06:42:02.887Z,6.1
2019-01-10T06:43:03.412Z,3.6
2019-01-10T06:44:03.523Z,5
2019-01-10T06:45:03.590Z,5
2019-01-10T06:46:03.152Z,5
2019-01-10T06:47:03.364Z,7.2
2019-01-10T06:48:03.565Z,3.6
2019-01-10T06:49:03.101Z,3.6
2019-01-10T06:50:02.678Z,5
2019-01-10T06:51:02.639Z,5
2019-01-10T06:52:03.360Z,5
2019-01-10T06:53:03.490Z,5
2019-01-10T06:54:03.647Z,7.2
2019-01-10T06:55:02.384Z,3.6
2019-01-10T06:56:02.186Z,5
2019-01-10T06:57:03.495Z,5
2019-01-10T06:58:03.624Z,3.6
2019-01-10T06:59:03.200Z,3.6
2019-01-10T07:00:03.345Z,2.5
2019-01-10T07:01:03.682Z,3.6
2019-01-10T07:02:03.517Z,3.6
2019-01-10T07:03:03.170Z,3.6
2019-01-10T07:04:03.428Z,3.6
2019-01-10T07:05:03.390Z,3.6
2019-01-10T07:06:03.535Z,3.6
2019-01-10T07:07:03.219Z,3.6
2019-01-10T07:08:03.693Z,3.6
2019-01-10T07:09:03.550Z,2.5
2019-01-10T07:10:03.423Z,2.5
2019-01-10T07:11:03.124Z,2.5
2019-01-10T07:12:03.404Z,1.1
2019-01-10T07:13:03.870Z,1.1
2019-01-10T07:14:03.328Z,2.5
2019-01-10T07:15:03.349Z,1.1
2019-01-10T07:16:02.766Z,5
2019-01-10T07:17:02.583Z,5
2019-01-10T07:18:03.574Z,2.5
2019-01-10T07:19:02.002Z,3.6
2019-01-10T07:20:03.284Z,2.5
2019-01-10T07:21:03.356Z,2.5
2019-01-10T07:22:03.239Z,2.5
2019-01-10T07:23:03.137Z,3.6
2019-01-10T07:24:03.295Z,2.5
2019-01-10T07:25:02.915Z,3.6
2019-01-10T07:26:02.983Z,3.6
2019-01-10T07:27:03.429Z,3.6
2019-01-10T07:28:03.554Z,2.5
2019-01-10T07:29:03.273Z,3.6
2019-01-10T07:30:03.764Z,2.5
2019-01-10T07:31:03.524Z,2.5
2019-01-10T07:32:02.848Z,5
2019-01-10T07:33:03.113Z,5
2019-01-10T07:34:03.749Z,3.6
2019-01-10T07:35:03.758Z,3.6
2019-01-10T07:36:03.591Z,6.1
2019-01-10T07:37:13.418Z,6.1
2019-01-10T07:38:03.459Z,3.6
2019-01-10T07:39:03.029Z,3.6
2019-01-10T07:40:03.572Z,6.1
2019-01-10T07:41:02.664Z,6.1
2019-01-10T07:42:03.288Z,6.1
2019-01-10T07:43:02.928Z,5
2019-01-10T07:44:03.644Z,2.5
2019-01-10T07:45:03.631Z,3.6
2019-01-10T07:46:02.873Z,5
2019-01-10T07:47:03.031Z,6.1
2019-01-10T07:48:02.977Z,5
2019-01-10T07:49:03.347Z,3.6
2019-01-10T07:50:03.560Z,5
2019-01-10T07:51:02.878Z,5
2019-01-10T07:52:03.097Z,5
2019-01-10T07:53:03.636Z,5
2019-01-10T07:54:03.297Z,5
2019-01-10T07:55:03.505Z,5
2019-01-10T07:56:03.429Z,6.1
2019-01-10T07:57:02.763Z,6.1
2019-01-10T07:58:03.376Z,3.6
2019-01-10T07:59:03.220Z,2.5
2019-01-10T08:00:03.760Z,3.6
2019-01-10T08:01:02.724Z,3.6
2019-01-10T08:02:03.463Z,3.6
2019-01-10T08:03:03.607Z,3.6
2019-01-10T08:04:02.519Z,3.6
2019-01-10T08:05:02.029Z,6.1
2019-01-10T08:06:05.007Z,5
2019-01-10T08:07:03.365Z,5
2019-01-10T08:08:03.439Z,6.1
2019-01-10T08:09:03.588Z,2.5
2019-01-10T08:10:03.225Z,2.5
2019-01-10T08:11:03.545Z,6.1
2019-01-10T08:12:03.661Z,3.6
2019-01-10T08:13:03.119Z,3.6
2019-01-10T08:14:03.765Z,5
2019-01-10T08:15:12.388Z,5
2019-01-10T08:16:03.367Z,6.1
2019-01-10T08:17:02.679Z,3.6
2019-01-10T08:18:03.675Z,5
2019-01-10T08:19:02.966Z,5
2019-01-10T08:20:03.170Z,3.6
2019-01-10T08:21:03.032Z,2.5
2019-01-10T08:22:03.437Z,3.6
2019-01-10T08:23:03.429Z,5
2019-01-10T08:24:03.213Z,5
2019-01-10T08:25:03.832Z,5
2019-01-10T08:26:02.733Z,3.6
2019-01-10T08:27:03.011Z,2.5
2019-01-10T08:28:03.274Z,3.6
2019-01-10T08:29:02.933Z,5
2019-01-10T08:30:03.630Z,3.6
2019-01-10T08:31:03.358Z,3.6
2019-01-10T08:32:04.561Z,1.1
2019-01-10T08:33:03.184Z,5
2019-01-10T08:34:02.826Z,6.1
2019-01-10T08:35:03.653Z,5
2019-01-10T08:36:03.046Z,5
2019-01-10T08:37:03.094Z,3.6
2019-01-10T08:38:03.698Z,5
2019-01-10T08:39:03.262Z,2.5
2019-01-10T08:40:03.080Z,2.5
2019-01-10T08:41:03.615Z,3.6
2019-01-10T08:42:03.107Z,5
2019-01-10T08:43:03.495Z,5
2019-01-10T08:44:02.725Z,3.6
2019-01-10T08:45:03.478Z,7.2
2019-01-10T08:46:02.932Z,6.1
2019-01-10T08:47:03.291Z,5
2019-01-10T08:48:02.338Z,2.5
2019-01-10T08:49:03.629Z,5
2019-01-10T08:50:03.511Z,5
2019-01-10T08:51:03.634Z,5
2019-01-10T08:52:03.718Z,5
2019-01-10T08:53:02.696Z,7.2
2019-01-10T08:54:03.594Z,1.1
2019-01-10T08:55:03.684Z,1.1
2019-01-10T08:56:02.974Z,2.5
2019-01-10T08:57:03.385Z,2.5
2019-01-10T08:58:03.116Z,2.5
2019-01-10T08:59:03.009Z,1.1
2019-01-10T09:00:03.646Z,3.6
2019-01-10T09:01:03.239Z,6.1
2019-01-10T09:02:02.972Z,6.1
2019-01-10T09:03:03.414Z,6.1
2019-01-10T09:04:03.442Z,6.1
2019-01-10T09:05:03.054Z,6.1
2019-01-10T09:06:08.800Z,6.1
2019-01-10T09:07:03.650Z,6.1
2019-01-10T09:08:03.076Z,6.1
2019-01-10T09:09:03.614Z,6.1
2019-01-10T09:10:03.345Z,3.6
2019-01-10T09:11:02.956Z,2.5
2019-01-10T09:12:02.353Z,3.6
2019-01-10T09:13:03.595Z,3.6
2019-01-10T09:14:05.049Z,3.6
2019-01-10T09:15:03.061Z,3.6
2019-01-10T09:16:03.187Z,5
2019-01-10T09:17:03.022Z,3.6
2019-01-10T09:18:02.743Z,3.6
2019-01-10T09:19:03.242Z,3.6
2019-01-10T09:20:02.979Z,6.1
2019-01-10T09:21:05.051Z,7.2
2019-01-10T09:22:03.803Z,3.6
2019-01-10T09:23:03.583Z,2.5
2019-01-10T09:24:03.093Z,3.6
2019-01-10T09:25:03.135Z,3.6
2019-01-10T09:26:03.913Z,3.6
2019-01-10T09:27:02.984Z,1.1
2019-01-10T09:28:03.663Z,1.1
2019-01-10T09:29:02.913Z,3.6
2019-01-10T09:30:03.561Z,3.6
2019-01-10T09:31:03.213Z,1.1
2019-01-10T09:32:03.204Z,1.1
2019-01-10T09:33:03.423Z,5
2019-01-10T09:34:03.127Z,5
2019-01-10T09:35:02.918Z,5
2019-01-10T09:36:02.680Z,5
2019-01-10T09:37:04.274Z,3.6
2019-01-10T09:38:03.325Z,3.6
2019-01-10T09:39:03.231Z,7.2
2019-01-10T09:40:02.848Z,5
2019-01-10T09:41:03.095Z,3.6
2019-01-10T09:42:03.553Z,3.6
2019-01-10T09:43:03.839Z,7.2
2019-01-10T09:44:02.888Z,1.1
2019-01-10T09:45:03.770Z,3.6
2019-01-10T09:46:02.728Z,6.1
2019-01-10T09:47:02.836Z,3.6
2019-01-10T09:48:03.360Z,5
2019-01-10T09:49:02.925Z,5
2019-01-10T09:50:02.753Z,2.5
2019-01-10T09:51:02.998Z,5
2019-01-10T09:52:03.573Z,2.5
2019-01-10T09:53:03.219Z,5
2019-01-10T09:54:03.341Z,3.6
2019-01-10T09:55:02.797Z,3.6
2019-01-10T09:56:03.209Z,3.6
2019-01-10T09:57:03.692Z,3.6
2019-01-10T09:58:02.951Z,6.1
2019-01-10T09:59:03.490Z,6.1
2019-01-10T10:00:03.550Z,3.6
2019-01-10T10:01:03.094Z,7.2
2019-01-10T10:02:02.799Z,6.1
2019-01-10T10:03:03.142Z,6.1
2019-01-10T10:04:02.099Z,8.6
2019-01-10T10:05:03.392Z,2.5
2019-01-10T10:06:08.634Z,6.1
2019-01-10T10:07:03.085Z,8.6
2019-01-10T10:08:03.101Z,5
2019-01-10T10:09:03.529Z,5
2019-01-10T10:10:03.144Z,5
2019-01-10T10:11:03.584Z,6.1
2019-01-10T10:12:03.358Z,2.5
2019-01-10T10:13:02.969Z,2.5
2019-01-10T10:14:03.002Z,5
2019-01-10T10:15:03.018Z,5
2019-01-10T10:16:03.367Z,2.5
2019-01-10T10:17:03.787Z,2.5
2019-01-10T10:18:02.940Z,8.6
2019-01-10T10:19:03.376Z,7.2
2019-01-10T10:20:02.776Z,5
2019-01-10T10:21:03.091Z,5
2019-01-10T10:22:02.797Z,5
2019-01-10T10:23:03.214Z,6.1
2019-01-10T10:24:03.340Z,7.2
2019-01-10T10:25:03.037Z,7.2
2019-01-10T10:26:03.308Z,5
2019-01-10T10:27:03.071Z,5
2019-01-10T10:28:03.114Z,7.2
2019-01-10T10:29:03.045Z,8.6
2019-01-10T10:30:03.067Z,8.6
2019-01-10T10:31:02.907Z,5
2019-01-10T10:32:03.101Z,6.1
2019-01-10T10:33:03.121Z,3.6
2019-01-10T10:34:03.767Z,3.6
2019-01-10T10:35:03.007Z,3.6
2019-01-10T10:36:03.329Z,6.1
2019-01-10T10:37:02.844Z,6.1
2019-01-10T10:38:02.955Z,6.1
2019-01-10T10:39:03.580Z,5
2019-01-10T10:40:03.490Z,7.2
2019-01-10T10:41:03.671Z,6.1
2019-01-10T10:42:02.930Z,2.5
2019-01-10T10:43:03.559Z,2.5
2019-01-10T10:44:03.435Z,3.6
2019-01-10T10:45:03.060Z,1.1
2019-01-10T10:46:02.387Z,6.1
2019-01-10T10:47:02.749Z,2.5
2019-01-10T10:48:02.037Z,2.5
2019-01-10T10:49:03.471Z,6.1
2019-01-10T10:50:03.178Z,5
2019-01-10T10:51:03.664Z,5
2019-01-10T10:52:03.623Z,5
2019-01-10T10:53:03.049Z,5
2019-01-10T10:54:03.665Z,2.5
2019-01-10T10:55:02.845Z,3.6
2019-01-10T10:56:03.560Z,6.1
2019-01-10T10:57:02.836Z,5
2019-01-10T10:58:03.397Z,5
2019-01-10T10:59:03.133Z,6.1
2019-01-10T11:00:03.533Z,7.2
2019-01-10T11:01:02.735Z,2.5
2019-01-10T11:02:04.031Z,2.5
2019-01-10T11:03:02.878Z,2.5
2019-01-10T11:04:03.645Z,2.5
2019-01-10T11:05:03.423Z,2.5
2019-01-10T11:06:02.965Z,2.5
2019-01-10T11:07:03.662Z,2.5
2019-01-10T11:08:02.843Z,2.5
2019-01-10T11:09:09.915Z,2.5
2019-01-10T11:10:03.505Z,3.6
2019-01-10T11:11:03.029Z,3.6
2019-01-10T11:12:02.804Z,3.6
2019-01-10T11:13:02.967Z,3.6
2019-01-10T11:14:03.335Z,2.5
2019-01-10T11:15:02.984Z,5
2019-01-10T11:16:11.101Z,5
2019-01-10T11:17:03.567Z,3.6
2019-01-10T11:18:03.059Z,3.6
2019-01-10T11:19:03.634Z,3.6
2019-01-10T11:20:03.287Z,3.6
2019-01-10T11:21:03.167Z,5
2019-01-10T11:22:03.544Z,5
2019-01-10T11:23:11.270Z,2.5
2019-01-10T11:24:03.748Z,2.5
2019-01-10T11:25:03.664Z,6.1
2019-01-10T11:26:03.218Z,6.1
2019-01-10T11:27:02.965Z,5
2019-01-10T11:28:03.595Z,5
2019-01-10T11:29:03.124Z,5
2019-01-10T11:30:03.767Z,6.1
2019-01-10T11:31:02.518Z,6.1
2019-01-10T11:32:03.297Z,5
2019-01-10T11:33:03.605Z,5
2019-01-10T11:34:03.331Z,5
2019-01-10T11:35:03.032Z,5
2019-01-10T11:36:03.154Z,5
2019-01-10T11:37:03.401Z,5
2019-01-10T11:38:03.710Z,5
2019-01-10T11:39:03.058Z,5
2019-01-10T11:40:03.151Z,5
2019-01-10T11:41:03.272Z,5
2019-01-10T11:42:03.185Z,5
2019-01-10T11:43:02.992Z,5
2019-01-10T11:44:02.799Z,5
2019-01-10T11:45:03.650Z,8.6
2019-01-10T11:46:03.149Z,8.6
2019-01-10T11:47:03.382Z,5
2019-01-10T11:48:03.011Z,3.6
2019-01-10T11:49:03.407Z,3.6
2019-01-10T11:50:03.833Z,3.6
2019-01-10T11:51:03.414Z,5
2019-01-10T11:52:02.060Z,5
2019-01-10T11:53:02.706Z,8.6
2019-01-10T11:54:03.400Z,8.6
2019-01-10T11:55:01.690Z,3.6
2019-01-10T11:56:03.385Z,5
2019-01-10T11:57:02.961Z,3.6
2019-01-10T11:58:03.689Z,3.6
2019-01-10T11:59:03.573Z,6.1
2019-01-10T12:00:02.820Z,6.1
2019-01-10T12:01:03.018Z,2.5
2019-01-10T12:02:02.909Z,2.5
2019-01-10T12:03:02.897Z,7.2
2019-01-10T12:04:03.394Z,7.2
2019-01-10T12:05:03.856Z,7.2
2019-01-10T12:06:03.722Z,7.2
2019-01-10T12:07:02.734Z,6.1
2019-01-10T12:08:03.420Z,6.1
2019-01-10T12:09:03.164Z,5
2019-01-10T12:10:03.780Z,5
2019-01-10T12:11:03.211Z,3.6
2019-01-10T12:12:02.994Z,3.6
2019-01-10T12:13:02.654Z,3.6
2019-01-10T12:14:03.622Z,6.1
2019-01-10T12:15:03.055Z,6.1
2019-01-10T12:16:03.734Z,6.1
2019-01-10T12:17:02.171Z,5
2019-01-10T12:18:02.966Z,5
2019-01-10T12:19:03.236Z,5
2019-01-10T12:20:03.340Z,5
2019-01-10T12:21:02.818Z,5
2019-01-10T12:22:03.302Z,5
2019-01-10T12:23:02.981Z,6.1
2019-01-10T12:24:03.568Z,6.1
2019-01-10T12:25:03.507Z,6.1
2019-01-10T12:26:02.896Z,5
2019-01-10T12:27:02.896Z,3.6
2019-01-10T12:28:03.592Z,3.6
2019-01-10T12:29:02.778Z,2.5
2019-01-10T12:30:03.427Z,6.1
2019-01-10T12:31:03.071Z,5
2019-01-10T12:32:02.690Z,5
2019-01-10T12:33:02.745Z,5
2019-01-10T12:34:02.673Z,2.5
2019-01-10T12:35:03.752Z,5
2019-01-10T12:36:02.866Z,5
2019-01-10T12:37:03.120Z,6.1
2019-01-10T12:38:01.835Z,6.1
2019-01-10T12:39:03.918Z,7.2
2019-01-10T12:40:01.843Z,5
2019-01-10T12:41:03.038Z,5
2019-01-10T12:42:03.606Z,7.2
2019-01-10T12:43:03.712Z,7.2
2019-01-10T12:44:03.058Z,8.6
2019-01-10T12:45:03.418Z,3.6
2019-01-10T12:46:03.126Z,3.6
2019-01-10T12:47:03.581Z,6.1
2019-01-10T12:48:03.119Z,3.6
2019-01-10T12:49:03.043Z,3.6
2019-01-10T12:50:03.791Z,3.6
2019-01-10T12:51:02.930Z,6.1
2019-01-10T12:52:03.125Z,6.1
2019-01-10T12:53:02.701Z,3.6
2019-01-10T12:54:03.756Z,5
2019-01-10T12:55:02.938Z,5
2019-01-10T12:56:02.950Z,5
2019-01-10T12:57:03.189Z,6.1
2019-01-10T12:58:02.874Z,6.1
2019-01-10T12:59:03.528Z,5
2019-01-10T13:00:02.581Z,2.5
2019-01-10T13:01:01.827Z,2.5
2019-01-10T13:02:03.580Z,2.5
2019-01-10T13:03:02.879Z,2.5
2019-01-10T13:04:03.397Z,2.5
2019-01-10T13:05:03.304Z,2.5
2019-01-10T13:06:03.009Z,2.5
2019-01-10T13:07:03.439Z,2.5
2019-01-10T13:08:04.415Z,2.5
2019-01-10T13:09:03.595Z,5
2019-01-10T13:10:03.143Z,6.1
2019-01-10T13:11:03.239Z,6.1
2019-01-10T13:12:03.013Z,6.1
2019-01-10T13:13:03.083Z,6.1
2019-01-10T13:14:05.996Z,6.1
2019-01-10T13:15:03.680Z,6.1
2019-01-10T13:16:03.174Z,8.6
2019-01-10T13:17:03.315Z,8.6
2019-01-10T13:18:03.457Z,6.1
2019-01-10T13:19:03.025Z,7.2
2019-01-10T13:20:02.964Z,7.2
2019-01-10T13:21:02.344Z,7.2
2019-01-10T13:22:02.153Z,7.2
2019-01-10T13:23:02.848Z,7.2
2019-01-10T13:24:03.847Z,11.2
2019-01-10T13:25:03.706Z,11.2
2019-01-10T13:26:03.574Z,5
2019-01-10T13:27:03.144Z,5
2019-01-10T13:28:02.741Z,7.2
2019-01-10T13:29:03.188Z,8.6
2019-01-10T13:30:02.969Z,7.2
2019-01-10T13:31:02.871Z,7.2
2019-01-10T13:32:03.389Z,6.1
2019-01-10T13:33:03.467Z,11.2
2019-01-10T13:34:03.018Z,8.6
2019-01-10T13:35:03.614Z,8.6
2019-01-10T13:36:02.995Z,8.6
2019-01-10T13:37:02.840Z,8.6
2019-01-10T13:38:03.311Z,7.2
2019-01-10T13:39:02.786Z,7.2
2019-01-10T13:40:02.988Z,6.1
2019-01-10T13:41:03.766Z,6.1
2019-01-10T13:42:03.444Z,8.6
2019-01-10T13:43:03.269Z,11.2
2019-01-10T13:44:03.360Z,8.6
2019-01-10T13:45:02.880Z,6.1
2019-01-10T13:46:03.323Z,9.7
2019-01-10T13:47:03.745Z,5
2019-01-10T13:48:03.219Z,6.1
2019-01-10T13:49:03.382Z,6.1
2019-01-10T13:50:11.721Z,5
2019-01-10T13:51:02.854Z,6.1
2019-01-10T13:52:03.108Z,6.1
2019-01-10T13:53:03.263Z,6.1
2019-01-10T13:54:03.290Z,7.2
2019-01-10T13:55:03.068Z,7.2
2019-01-10T13:56:03.394Z,5
2019-01-10T13:57:02.900Z,5
2019-01-10T13:58:03.369Z,6.1
2019-01-10T13:59:03.015Z,6.1
2019-01-10T14:00:03.671Z,8.6
2019-01-10T14:01:03.434Z,7.2
2019-01-10T14:02:03.450Z,6.1